sensor_id;sensor_type;location;lat;lon;timestamp;pressure;altitude;pressure_sealevel;temperature;humidity
24962;BME280;12992;50.884;13.668;2023-07-20T00:01:36;96964.75;;;15.45;100.00
24962;BME280;12992;50.884;13.668;2023-07-20T00:04:03;96961.41;;;15.48;100.00
24962;BME280;12992;50.884;13.668;2023-07-20T00:06:28;96958.88;;;15.51;100.00
24962;BME280;12992;50.884;13.668;2023-07-20T00:08:54;96958.28;;;15.54;100.00
24962;BME280;12992;50.884;13.668;2023-07-20T00:11:20;96961.22;;;15.63;100.00
24962;BME280;12992;50.884;13.668;2023-07-20T00:13:45;96955.97;;;15.67;100.00
24962;BME280;12992;50.884;13.668;2023-07-20T00:16:10;96964.72;;;15.69;100.00
24962;BME280;12992;50.884;13.668;2023-07-20T00:18:36;96963.28;;;15.71;100.00
24962;BME280;12992;50.884;13.668;2023-07-20T00:21:01;96968.56;;;15.68;100.00
24962;BME280;12992;50.884;13.668;2023-07-20T00:23:27;96977.09;;;15.66;100.00
24962;BME280;12992;50.884;13.668;2023-07-20T00:25:52;96966.19;;;15.61;100.00
24962;BME280;12992;50.884;13.668;2023-07-20T00:28:17;96962.63;;;15.61;100.00
24962;BME280;12992;50.884;13.668;2023-07-20T00:30:42;96970.28;;;15.64;100.00
24962;BME280;12992;50.884;13.668;2023-07-20T00:33:10;96955.28;;;15.56;100.00
24962;BME280;12992;50.884;13.668;2023-07-20T00:35:35;96971.75;;;15.56;100.00
24962;BME280;12992;50.884;13.668;2023-07-20T00:38:00;96970.38;;;15.53;100.00
24962;BME280;12992;50.884;13.668;2023-07-20T00:40:26;96973.44;;;15.52;100.00
24962;BME280;12992;50.884;13.668;2023-07-20T00:42:51;96973.44;;;15.52;100.00
24962;BME280;12992;50.884;13.668;2023-07-20T00:45:22;96979.44;;;15.54;100.00
24962;BME280;12992;50.884;13.668;2023-07-20T00:47:47;96978.56;;;15.58;100.00
24962;BME280;12992;50.884;13.668;2023-07-20T00:50:13;96976.94;;;15.57;100.00
24962;BME280;12992;50.884;13.668;2023-07-20T00:52:38;96994.50;;;15.56;100.00
24962;BME280;12992;50.884;13.668;2023-07-20T00:55:06;96975.88;;;15.53;100.00
24962;BME280;12992;50.884;13.668;2023-07-20T00:57:32;96986.34;;;15.51;100.00
24962;BME280;12992;50.884;13.668;2023-07-20T00:59:58;96981.44;;;15.48;100.00
24962;BME280;12992;50.884;13.668;2023-07-20T01:05:14;96982.78;;;15.51;100.00
24962;BME280;12992;50.884;13.668;2023-07-20T01:10:43;96977.94;;;15.43;100.00
24962;BME280;12992;50.884;13.668;2023-07-20T01:13:10;96968.38;;;15.40;100.00
24962;BME280;12992;50.884;13.668;2023-07-20T01:15:39;96975.00;;;15.39;100.00
24962;BME280;12992;50.884;13.668;2023-07-20T01:18:04;96977.13;;;15.42;100.00
24962;BME280;12992;50.884;13.668;2023-07-20T01:20:30;96978.19;;;15.46;100.00
24962;BME280;12992;50.884;13.668;2023-07-20T01:25:45;96976.97;;;15.52;100.00
24962;BME280;12992;50.884;13.668;2023-07-20T01:28:24;96976.00;;;15.43;100.00
24962;BME280;12992;50.884;13.668;2023-07-20T01:33:31;96972.94;;;15.26;100.00
24962;BME280;12992;50.884;13.668;2023-07-20T01:35:58;96974.06;;;15.25;100.00
24962;BME280;12992;50.884;13.668;2023-07-20T01:38:24;96982.00;;;15.26;100.00
24962;BME280;12992;50.884;13.668;2023-07-20T01:40:50;96969.69;;;15.24;100.00
24962;BME280;12992;50.884;13.668;2023-07-20T01:43:15;96970.34;;;15.16;100.00
24962;BME280;12992;50.884;13.668;2023-07-20T01:45:42;96967.38;;;15.12;100.00
24962;BME280;12992;50.884;13.668;2023-07-20T01:48:07;96971.25;;;15.11;100.00
24962;BME280;12992;50.884;13.668;2023-07-20T01:50:32;96974.84;;;15.07;100.00
24962;BME280;12992;50.884;13.668;2023-07-20T01:52:59;96970.53;;;15.00;100.00
24962;BME280;12992;50.884;13.668;2023-07-20T01:55:25;96966.44;;;14.98;100.00
24962;BME280;12992;50.884;13.668;2023-07-20T01:57:50;96971.72;;;14.94;100.00
24962;BME280;12992;50.884;13.668;2023-07-20T02:00:15;96974.72;;;14.93;100.00
24962;BME280;12992;50.884;13.668;2023-07-20T02:02:41;96964.66;;;14.88;100.00
24962;BME280;12992;50.884;13.668;2023-07-20T02:05:06;96975.09;;;14.86;100.00
24962;BME280;12992;50.884;13.668;2023-07-20T02:07:31;96979.75;;;14.86;100.00
24962;BME280;12992;50.884;13.668;2023-07-20T02:09:57;96978.41;;;14.83;100.00
24962;BME280;12992;50.884;13.668;2023-07-20T02:12:22;96997.06;;;14.81;100.00
24962;BME280;12992;50.884;13.668;2023-07-20T02:14:47;96993.50;;;14.81;100.00
24962;BME280;12992;50.884;13.668;2023-07-20T02:17:13;96996.59;;;14.74;100.00
24962;BME280;12992;50.884;13.668;2023-07-20T02:19:40;96993.63;;;14.70;100.00
24962;BME280;12992;50.884;13.668;2023-07-20T02:22:05;96982.44;;;14.67;100.00
24962;BME280;12992;50.884;13.668;2023-07-20T02:24:32;96986.03;;;14.62;100.00
24962;BME280;12992;50.884;13.668;2023-07-20T02:26:57;96989.06;;;14.61;100.00
24962;BME280;12992;50.884;13.668;2023-07-20T02:29:23;96990.69;;;14.62;100.00
24962;BME280;12992;50.884;13.668;2023-07-20T02:31:48;96993.47;;;14.57;100.00
24962;BME280;12992;50.884;13.668;2023-07-20T02:34:13;96992.44;;;14.53;100.00
24962;BME280;12992;50.884;13.668;2023-07-20T02:36:38;96999.06;;;14.47;100.00
24962;BME280;12992;50.884;13.668;2023-07-20T02:39:04;97000.47;;;14.39;100.00
24962;BME280;12992;50.884;13.668;2023-07-20T02:41:33;97000.53;;;14.34;100.00
24962;BME280;12992;50.884;13.668;2023-07-20T02:43:58;97000.28;;;14.30;100.00
24962;BME280;12992;50.884;13.668;2023-07-20T02:46:23;97010.41;;;14.30;100.00
24962;BME280;12992;50.884;13.668;2023-07-20T02:48:49;97003.69;;;14.17;100.00
24962;BME280;12992;50.884;13.668;2023-07-20T02:51:14;97002.66;;;14.08;100.00
24962;BME280;12992;50.884;13.668;2023-07-20T02:53:39;97002.91;;;14.11;100.00
24962;BME280;12992;50.884;13.668;2023-07-20T02:56:05;97015.78;;;14.11;100.00
24962;BME280;12992;50.884;13.668;2023-07-20T02:58:30;97023.19;;;14.10;100.00
24962;BME280;12992;50.884;13.668;2023-07-20T03:00:55;97019.69;;;14.05;100.00
24962;BME280;12992;50.884;13.668;2023-07-20T03:03:21;97018.00;;;14.09;100.00
24962;BME280;12992;50.884;13.668;2023-07-20T03:05:46;97018.00;;;14.09;100.00
24962;BME280;12992;50.884;13.668;2023-07-20T03:08:11;97024.56;;;14.08;100.00
24962;BME280;12992;50.884;13.668;2023-07-20T03:10:40;97016.88;;;14.10;100.00
24962;BME280;12992;50.884;13.668;2023-07-20T03:13:08;97017.75;;;14.05;100.00
24962;BME280;12992;50.884;13.668;2023-07-20T03:15:34;97030.06;;;14.08;100.00
24962;BME280;12992;50.884;13.668;2023-07-20T03:18:00;97031.97;;;14.07;100.00
24962;BME280;12992;50.884;13.668;2023-07-20T03:20:27;97032.25;;;14.06;100.00
24962;BME280;12992;50.884;13.668;2023-07-20T03:22:52;97031.69;;;14.04;100.00
24962;BME280;12992;50.884;13.668;2023-07-20T03:25:17;97036.94;;;14.05;100.00
24962;BME280;12992;50.884;13.668;2023-07-20T03:27:43;97028.97;;;14.04;100.00
24962;BME280;12992;50.884;13.668;2023-07-20T03:30:08;97032.25;;;14.06;100.00
24962;BME280;12992;50.884;13.668;2023-07-20T03:32:34;97035.00;;;14.06;100.00
24962;BME280;12992;50.884;13.668;2023-07-20T03:35:01;97028.44;;;14.02;100.00
24962;BME280;12992;50.884;13.668;2023-07-20T03:37:26;97031.19;;;14.02;100.00
24962;BME280;12992;50.884;13.668;2023-07-20T03:39:51;97039.91;;;14.09;100.00
24962;BME280;12992;50.884;13.668;2023-07-20T03:42:17;97037.13;;;14.14;100.00
24962;BME280;12992;50.884;13.668;2023-07-20T03:44:42;97034.03;;;14.21;100.00
24962;BME280;12992;50.884;13.668;2023-07-20T03:47:07;97040.84;;;14.28;100.00
24962;BME280;12992;50.884;13.668;2023-07-20T03:49:34;97036.66;;;14.36;100.00
24962;BME280;12992;50.884;13.668;2023-07-20T03:52:00;97037.19;;;14.38;100.00
24962;BME280;12992;50.884;13.668;2023-07-20T03:54:25;97043.47;;;14.43;100.00
24962;BME280;12992;50.884;13.668;2023-07-20T03:56:50;97042.88;;;14.52;100.00
24962;BME280;12992;50.884;13.668;2023-07-20T03:59:15;97044.47;;;14.58;100.00
24962;BME280;12992;50.884;13.668;2023-07-20T04:01:41;97045.19;;;14.68;100.00
24962;BME280;12992;50.884;13.668;2023-07-20T04:04:07;97042.63;;;14.77;100.00
24962;BME280;12992;50.884;13.668;2023-07-20T04:06:33;97044.75;;;14.85;100.00
24962;BME280;12992;50.884;13.668;2023-07-20T04:08:58;97045.19;;;14.92;100.00
24962;BME280;12992;50.884;13.668;2023-07-20T04:11:23;97046.78;;;14.98;100.00
24962;BME280;12992;50.884;13.668;2023-07-20T04:13:49;97050.81;;;15.06;100.00
24962;BME280;12992;50.884;13.668;2023-07-20T04:16:14;97047.16;;;15.16;100.00
24962;BME280;12992;50.884;13.668;2023-07-20T04:18:39;97053.88;;;15.28;100.00
24962;BME280;12992;50.884;13.668;2023-07-20T04:21:05;97046.13;;;15.54;100.00
24962;BME280;12992;50.884;13.668;2023-07-20T04:23:30;97052.41;;;15.79;100.00
24962;BME280;12992;50.884;13.668;2023-07-20T04:25:56;97043.97;;;16.13;100.00
24962;BME280;12992;50.884;13.668;2023-07-20T04:28:22;97037.84;;;16.35;100.00
24962;BME280;12992;50.884;13.668;2023-07-20T04:30:48;97024.75;;;16.46;100.00
24962;BME280;12992;50.884;13.668;2023-07-20T04:33:15;97013.63;;;16.37;100.00
24962;BME280;12992;50.884;13.668;2023-07-20T04:35:51;97017.66;;;16.26;100.00
24962;BME280;12992;50.884;13.668;2023-07-20T04:38:21;97017.22;;;16.19;100.00
24962;BME280;12992;50.884;13.668;2023-07-20T04:40:51;97012.03;;;15.98;100.00
24962;BME280;12992;50.884;13.668;2023-07-20T04:43:17;97020.53;;;15.83;100.00
24962;BME280;12992;50.884;13.668;2023-07-20T04:45:43;97021.41;;;15.78;100.00
24962;BME280;12992;50.884;13.668;2023-07-20T04:48:10;97031.88;;;15.95;100.00
24962;BME280;12992;50.884;13.668;2023-07-20T04:50:37;97029.16;;;16.28;100.00
24962;BME280;12992;50.884;13.668;2023-07-20T04:53:03;97043.41;;;16.81;100.00
24962;BME280;12992;50.884;13.668;2023-07-20T04:55:28;97039.88;;;17.08;100.00
24962;BME280;12992;50.884;13.668;2023-07-20T04:57:54;97031.28;;;16.96;100.00
24962;BME280;12992;50.884;13.668;2023-07-20T05:00:21;97023.34;;;16.81;100.00
24962;BME280;12992;50.884;13.668;2023-07-20T05:02:47;97025.41;;;16.89;100.00
24962;BME280;12992;50.884;13.668;2023-07-20T05:05:14;97029.16;;;16.93;100.00
24962;BME280;12992;50.884;13.668;2023-07-20T05:07:39;97032.75;;;17.07;100.00
24962;BME280;12992;50.884;13.668;2023-07-20T05:10:05;97012.75;;;16.88;100.00
24962;BME280;12992;50.884;13.668;2023-07-20T05:12:31;97006.78;;;16.67;100.00
24962;BME280;12992;50.884;13.668;2023-07-20T05:14:56;97007.16;;;16.60;100.00
24962;BME280;12992;50.884;13.668;2023-07-20T05:17:22;97019.97;;;16.51;100.00
24962;BME280;12992;50.884;13.668;2023-07-20T05:19:47;97025.88;;;16.45;100.00
24962;BME280;12992;50.884;13.668;2023-07-20T05:22:13;97032.81;;;16.56;100.00
24962;BME280;12992;50.884;13.668;2023-07-20T05:24:39;97037.19;;;16.57;100.00
24962;BME280;12992;50.884;13.668;2023-07-20T05:27:04;97040.16;;;16.60;100.00
24962;BME280;12992;50.884;13.668;2023-07-20T05:29:29;97030.38;;;16.54;100.00
24962;BME280;12992;50.884;13.668;2023-07-20T05:31:54;97024.19;;;16.62;100.00
24962;BME280;12992;50.884;13.668;2023-07-20T05:34:20;97031.81;;;16.65;100.00
24962;BME280;12992;50.884;13.668;2023-07-20T05:36:46;97037.41;;;16.93;100.00
24962;BME280;12992;50.884;13.668;2023-07-20T05:39:11;97020.81;;;16.98;100.00
24962;BME280;12992;50.884;13.668;2023-07-20T05:41:36;97022.34;;;17.04;100.00
24962;BME280;12992;50.884;13.668;2023-07-20T05:44:01;97017.94;;;17.03;100.00
24962;BME280;12992;50.884;13.668;2023-07-20T05:46:26;97039.25;;;17.11;100.00
24962;BME280;12992;50.884;13.668;2023-07-20T05:48:52;97029.38;;;17.10;100.00
24962;BME280;12992;50.884;13.668;2023-07-20T05:51:17;97035.81;;;17.19;100.00
24962;BME280;12992;50.884;13.668;2023-07-20T05:53:42;97033.84;;;17.20;100.00
24962;BME280;12992;50.884;13.668;2023-07-20T05:56:07;97024.28;;;17.17;100.00
24962;BME280;12992;50.884;13.668;2023-07-20T05:58:36;97026.41;;;17.20;100.00
24962;BME280;12992;50.884;13.668;2023-07-20T06:01:03;97045.78;;;17.43;100.00
24962;BME280;12992;50.884;13.668;2023-07-20T06:03:30;97043.75;;;17.62;100.00
24962;BME280;12992;50.884;13.668;2023-07-20T06:05:59;97040.88;;;17.53;100.00
24962;BME280;12992;50.884;13.668;2023-07-20T06:08:25;97027.94;;;17.54;100.00
24962;BME280;12992;50.884;13.668;2023-07-20T06:10:51;97025.59;;;17.61;100.00
24962;BME280;12992;50.884;13.668;2023-07-20T06:13:17;97026.59;;;17.65;100.00
24962;BME280;12992;50.884;13.668;2023-07-20T06:15:42;97031.22;;;17.70;100.00
24962;BME280;12992;50.884;13.668;2023-07-20T06:18:08;97034.38;;;17.77;100.00
24962;BME280;12992;50.884;13.668;2023-07-20T06:20:34;97025.75;;;17.92;100.00
24962;BME280;12992;50.884;13.668;2023-07-20T06:22:59;97031.88;;;17.89;100.00
24962;BME280;12992;50.884;13.668;2023-07-20T06:25:25;97021.09;;;17.65;100.00
24962;BME280;12992;50.884;13.668;2023-07-20T06:27:50;97027.44;;;17.24;100.00
24962;BME280;12992;50.884;13.668;2023-07-20T06:30:19;97027.44;;;16.97;100.00
24962;BME280;12992;50.884;13.668;2023-07-20T06:32:44;97041.81;;;16.61;100.00
24962;BME280;12992;50.884;13.668;2023-07-20T06:35:09;97048.41;;;16.28;100.00
24962;BME280;12992;50.884;13.668;2023-07-20T06:37:35;97059.25;;;16.00;100.00
24962;BME280;12992;50.884;13.668;2023-07-20T06:40:01;97044.41;;;15.82;100.00
24962;BME280;12992;50.884;13.668;2023-07-20T06:42:26;97050.56;;;15.74;100.00
24962;BME280;12992;50.884;13.668;2023-07-20T06:44:52;97050.41;;;15.66;100.00
24962;BME280;12992;50.884;13.668;2023-07-20T06:47:17;97054.03;;;15.61;100.00
24962;BME280;12992;50.884;13.668;2023-07-20T06:49:42;97067.25;;;15.54;100.00
24962;BME280;12992;50.884;13.668;2023-07-20T06:52:08;97071.50;;;15.46;100.00
24962;BME280;12992;50.884;13.668;2023-07-20T06:54:33;97075.69;;;15.39;100.00
24962;BME280;12992;50.884;13.668;2023-07-20T06:56:58;97066.09;;;15.36;100.00
24962;BME280;12992;50.884;13.668;2023-07-20T06:59:24;97073.59;;;15.30;100.00
24962;BME280;12992;50.884;13.668;2023-07-20T07:01:49;97086.78;;;15.28;100.00
24962;BME280;12992;50.884;13.668;2023-07-20T07:04:14;97082.16;;;15.24;100.00
24962;BME280;12992;50.884;13.668;2023-07-20T07:06:40;97095.75;;;15.34;100.00
24962;BME280;12992;50.884;13.668;2023-07-20T07:09:05;97087.59;;;15.29;100.00
24962;BME280;12992;50.884;13.668;2023-07-20T07:11:30;97102.06;;;15.35;100.00
24962;BME280;12992;50.884;13.668;2023-07-20T07:13:56;97102.50;;;15.47;100.00
24962;BME280;12992;50.884;13.668;2023-07-20T07:16:21;97099.88;;;15.61;100.00
24962;BME280;12992;50.884;13.668;2023-07-20T07:18:46;97098.72;;;15.67;100.00
24962;BME280;12992;50.884;13.668;2023-07-20T07:21:11;97099.16;;;15.74;100.00
24962;BME280;12992;50.884;13.668;2023-07-20T07:23:37;97108.97;;;15.80;100.00
24962;BME280;12992;50.884;13.668;2023-07-20T07:26:03;97096.84;;;15.81;100.00
24962;BME280;12992;50.884;13.668;2023-07-20T07:28:28;97097.84;;;15.90;100.00
24962;BME280;12992;50.884;13.668;2023-07-20T07:30:54;97106.22;;;15.99;100.00
24962;BME280;12992;50.884;13.668;2023-07-20T07:33:20;97110.41;;;16.15;100.00
24962;BME280;12992;50.884;13.668;2023-07-20T07:35:45;97100.69;;;16.23;100.00
24962;BME280;12992;50.884;13.668;2023-07-20T07:38:10;97098.16;;;16.45;100.00
24962;BME280;12992;50.884;13.668;2023-07-20T07:40:35;97100.88;;;16.64;100.00
24962;BME280;12992;50.884;13.668;2023-07-20T07:43:01;97106.53;;;16.73;100.00
24962;BME280;12992;50.884;13.668;2023-07-20T07:45:26;97102.72;;;16.87;100.00
24962;BME280;12992;50.884;13.668;2023-07-20T07:47:51;97110.78;;;16.97;100.00
24962;BME280;12992;50.884;13.668;2023-07-20T07:50:16;97100.84;;;17.15;100.00
24962;BME280;12992;50.884;13.668;2023-07-20T07:52:42;97107.88;;;17.35;100.00
24962;BME280;12992;50.884;13.668;2023-07-20T07:55:07;97105.13;;;17.63;100.00
24962;BME280;12992;50.884;13.668;2023-07-20T07:57:32;97112.19;;;17.96;100.00
24962;BME280;12992;50.884;13.668;2023-07-20T07:59:57;97091.25;;;17.95;100.00
24962;BME280;12992;50.884;13.668;2023-07-20T08:02:23;97085.75;;;17.81;100.00
24962;BME280;12992;50.884;13.668;2023-07-20T08:04:48;97095.78;;;17.77;100.00
24962;BME280;12992;50.884;13.668;2023-07-20T08:07:16;97099.44;;;17.87;100.00
24962;BME280;12992;50.884;13.668;2023-07-20T08:09:41;97096.34;;;18.02;100.00
24962;BME280;12992;50.884;13.668;2023-07-20T08:12:06;97107.31;;;18.29;100.00
24962;BME280;12992;50.884;13.668;2023-07-20T08:14:32;97099.56;;;18.18;100.00
24962;BME280;12992;50.884;13.668;2023-07-20T08:16:57;97090.22;;;18.05;100.00
24962;BME280;12992;50.884;13.668;2023-07-20T08:19:23;97094.22;;;17.99;100.00
24962;BME280;12992;50.884;13.668;2023-07-20T08:21:48;97096.16;;;17.98;100.00
24962;BME280;12992;50.884;13.668;2023-07-20T08:24:14;97123.94;;;18.74;100.00
24962;BME280;12992;50.884;13.668;2023-07-20T08:26:39;97130.28;;;19.59;100.00
24962;BME280;12992;50.884;13.668;2023-07-20T08:29:04;97115.91;;;20.62;100.00
24962;BME280;12992;50.884;13.668;2023-07-20T08:31:29;97109.78;;;21.38;91.93
24962;BME280;12992;50.884;13.668;2023-07-20T08:33:55;97112.00;;;22.21;87.65
24962;BME280;12992;50.884;13.668;2023-07-20T08:36:22;97105.50;;;23.34;82.72
24962;BME280;12992;50.884;13.668;2023-07-20T08:38:47;97074.72;;;22.73;83.33
24962;BME280;12992;50.884;13.668;2023-07-20T08:41:13;97065.88;;;22.38;87.65
24962;BME280;12992;50.884;13.668;2023-07-20T08:43:39;97080.81;;;22.66;83.92
24962;BME280;12992;50.884;13.668;2023-07-20T08:46:07;97087.63;;;23.68;78.11
24962;BME280;12992;50.884;13.668;2023-07-20T08:48:33;97070.94;;;24.05;75.72
24962;BME280;12992;50.884;13.668;2023-07-20T08:50:58;97070.75;;;24.38;75.93
24962;BME280;12992;50.884;13.668;2023-07-20T08:53:25;97081.28;;;25.56;70.02
24962;BME280;12992;50.884;13.668;2023-07-20T08:55:52;97079.09;;;26.48;67.56
24962;BME280;12992;50.884;13.668;2023-07-20T08:58:17;97053.09;;;26.44;66.02
24962;BME280;12992;50.884;13.668;2023-07-20T09:00:43;97071.56;;;26.87;67.92
24962;BME280;12992;50.884;13.668;2023-07-20T09:03:08;97050.59;;;26.97;67.21
24962;BME280;12992;50.884;13.668;2023-07-20T09:05:33;97047.66;;;26.90;66.49
24962;BME280;12992;50.884;13.668;2023-07-20T09:08:00;97034.56;;;25.69;68.03
24962;BME280;12992;50.884;13.668;2023-07-20T09:10:26;97027.72;;;25.35;69.83
24962;BME280;12992;50.884;13.668;2023-07-20T09:12:51;97031.31;;;25.35;70.31
24962;BME280;12992;50.884;13.668;2023-07-20T09:15:16;97024.66;;;24.80;69.75
24962;BME280;12992;50.884;13.668;2023-07-20T09:17:46;97000.94;;;23.54;71.60
24962;BME280;12992;50.884;13.668;2023-07-20T09:20:12;96997.19;;;23.13;73.26
24962;BME280;12992;50.884;13.668;2023-07-20T09:22:37;97015.38;;;23.23;75.63
24962;BME280;12992;50.884;13.668;2023-07-20T09:25:14;97035.97;;;24.44;71.64
24962;BME280;12992;50.884;13.668;2023-07-20T09:27:40;97049.81;;;25.72;67.94
24962;BME280;12992;50.884;13.668;2023-07-20T09:30:06;97035.94;;;25.91;65.53
24962;BME280;12992;50.884;13.668;2023-07-20T09:32:32;97021.28;;;25.47;65.79
24962;BME280;12992;50.884;13.668;2023-07-20T09:35:03;97046.28;;;26.25;65.83
24962;BME280;12992;50.884;13.668;2023-07-20T09:37:28;97053.63;;;27.07;64.34
24962;BME280;12992;50.884;13.668;2023-07-20T09:39:53;97007.03;;;25.99;64.53
24962;BME280;12992;50.884;13.668;2023-07-20T09:42:19;96997.25;;;25.10;66.24
24962;BME280;12992;50.884;13.668;2023-07-20T09:44:46;96966.88;;;23.81;69.93
24962;BME280;12992;50.884;13.668;2023-07-20T09:47:11;96977.38;;;22.57;73.65
24962;BME280;12992;50.884;13.668;2023-07-20T09:49:39;96991.69;;;22.47;75.80
24962;BME280;12992;50.884;13.668;2023-07-20T09:52:04;97019.75;;;23.69;72.89
24962;BME280;12992;50.884;13.668;2023-07-20T09:54:30;97020.06;;;24.44;69.52
24962;BME280;12992;50.884;13.668;2023-07-20T09:56:56;97004.97;;;24.05;70.53
24962;BME280;12992;50.884;13.668;2023-07-20T09:59:21;97011.78;;;24.08;72.79
24962;BME280;12992;50.884;13.668;2023-07-20T10:01:47;96998.72;;;23.84;72.43
24962;BME280;12992;50.884;13.668;2023-07-20T10:04:14;97000.44;;;24.00;71.83
24962;BME280;12992;50.884;13.668;2023-07-20T10:06:42;97011.53;;;24.81;71.34
24962;BME280;12992;50.884;13.668;2023-07-20T10:09:07;97032.16;;;25.83;68.53
24962;BME280;12992;50.884;13.668;2023-07-20T10:11:34;97054.47;;;26.92;65.01
24962;BME280;12992;50.884;13.668;2023-07-20T10:14:00;97022.88;;;26.88;63.02
24962;BME280;12992;50.884;13.668;2023-07-20T10:16:29;97007.25;;;26.45;62.66
24962;BME280;12992;50.884;13.668;2023-07-20T10:19:13;97041.84;;;27.63;61.66
24962;BME280;12992;50.884;13.668;2023-07-20T10:21:43;97016.06;;;27.51;59.81
24962;BME280;12992;50.884;13.668;2023-07-20T10:24:12;97008.47;;;27.05;60.23
24962;BME280;12992;50.884;13.668;2023-07-20T10:26:38;96999.31;;;26.47;61.21
24962;BME280;12992;50.884;13.668;2023-07-20T10:29:03;96968.31;;;25.15;63.44
24962;BME280;12992;50.884;13.668;2023-07-20T10:31:29;96966.63;;;24.67;64.64
24962;BME280;12992;50.884;13.668;2023-07-20T10:33:58;96959.50;;;24.13;66.27
24962;BME280;12992;50.884;13.668;2023-07-20T10:36:24;96961.78;;;23.59;68.29
24962;BME280;12992;50.884;13.668;2023-07-20T10:38:53;96944.06;;;23.02;69.75
24962;BME280;12992;50.884;13.668;2023-07-20T10:41:20;96951.75;;;22.72;73.65
24962;BME280;12992;50.884;13.668;2023-07-20T10:43:46;96950.63;;;22.40;73.35
24962;BME280;12992;50.884;13.668;2023-07-20T10:46:12;96945.84;;;22.08;72.64
24962;BME280;12992;50.884;13.668;2023-07-20T10:48:58;96953.09;;;22.00;74.89
24962;BME280;12992;50.884;13.668;2023-07-20T10:51:23;96970.13;;;22.65;72.18
24962;BME280;12992;50.884;13.668;2023-07-20T10:53:48;96968.84;;;23.20;67.97
24962;BME280;12992;50.884;13.668;2023-07-20T10:56:15;96931.00;;;22.45;68.61
24962;BME280;12992;50.884;13.668;2023-07-20T10:58:44;96953.47;;;22.65;69.35
24962;BME280;12992;50.884;13.668;2023-07-20T11:01:13;96949.38;;;22.95;68.34
24962;BME280;12992;50.884;13.668;2023-07-20T11:03:38;97001.03;;;24.46;67.50
24962;BME280;12992;50.884;13.668;2023-07-20T11:08:49;96958.38;;;24.02;68.77
24962;BME280;12992;50.884;13.668;2023-07-20T11:11:35;96945.56;;;23.49;68.75
24962;BME280;12992;50.884;13.668;2023-07-20T11:19:02;96969.38;;;25.42;62.67
24962;BME280;12992;50.884;13.668;2023-07-20T11:21:28;96951.28;;;24.89;64.18
24962;BME280;12992;50.884;13.668;2023-07-20T11:23:54;96935.81;;;24.19;66.57
24962;BME280;12992;50.884;13.668;2023-07-20T11:26:20;96938.97;;;23.65;69.70
24962;BME280;12992;50.884;13.668;2023-07-20T11:28:51;96972.31;;;24.30;69.44
24962;BME280;12992;50.884;13.668;2023-07-20T11:31:20;96995.81;;;25.80;65.87
24962;BME280;12992;50.884;13.668;2023-07-20T11:33:45;96999.97;;;27.02;60.92
24962;BME280;12992;50.884;13.668;2023-07-20T11:36:11;97014.34;;;28.45;58.40
24962;BME280;12992;50.884;13.668;2023-07-20T11:38:36;97012.38;;;29.57;54.98
24962;BME280;12992;50.884;13.668;2023-07-20T11:41:03;96993.81;;;29.45;54.46
24962;BME280;12992;50.884;13.668;2023-07-20T11:43:28;96982.34;;;29.17;53.82
24962;BME280;12992;50.884;13.668;2023-07-20T11:45:54;96977.41;;;29.06;54.71
24962;BME280;12992;50.884;13.668;2023-07-20T11:48:20;96994.72;;;29.53;53.12
24962;BME280;12992;50.884;13.668;2023-07-20T11:50:45;96984.88;;;28.92;54.35
24962;BME280;12992;50.884;13.668;2023-07-20T11:53:10;96967.34;;;28.65;53.89
24962;BME280;12992;50.884;13.668;2023-07-20T11:55:36;96967.50;;;28.45;55.57
24962;BME280;12992;50.884;13.668;2023-07-20T11:58:04;96964.34;;;28.84;54.33
24962;BME280;12992;50.884;13.668;2023-07-20T12:00:30;96961.38;;;28.70;56.12
24962;BME280;12992;50.884;13.668;2023-07-20T12:02:56;96955.69;;;28.96;53.56
24962;BME280;12992;50.884;13.668;2023-07-20T12:05:24;96960.63;;;29.51;53.27
24962;BME280;12992;50.884;13.668;2023-07-20T12:07:49;96962.09;;;29.89;51.47
24962;BME280;12992;50.884;13.668;2023-07-20T12:10:15;96948.41;;;29.84;51.37
24962;BME280;12992;50.884;13.668;2023-07-20T12:12:41;96939.72;;;29.48;52.07
24962;BME280;12992;50.884;13.668;2023-07-20T12:17:45;96907.94;;;27.88;54.64
24962;BME280;12992;50.884;13.668;2023-07-20T12:20:11;96876.00;;;26.45;55.70
24962;BME280;12992;50.884;13.668;2023-07-20T12:22:40;96872.97;;;25.41;58.99
24962;BME280;12992;50.884;13.668;2023-07-20T12:25:06;96874.78;;;24.54;61.20
24962;BME280;12992;50.884;13.668;2023-07-20T12:27:32;96883.66;;;24.16;64.10
24962;BME280;12992;50.884;13.668;2023-07-20T12:29:57;96895.47;;;23.85;69.42
24962;BME280;12992;50.884;13.668;2023-07-20T12:32:22;96896.25;;;23.45;72.51
24962;BME280;12992;50.884;13.668;2023-07-20T12:34:48;96897.78;;;23.43;73.45
24962;BME280;12992;50.884;13.668;2023-07-20T12:37:13;96890.03;;;22.87;75.54
24962;BME280;12992;50.884;13.668;2023-07-20T12:39:38;96892.63;;;22.14;78.71
24962;BME280;12992;50.884;13.668;2023-07-20T12:42:04;96902.72;;;21.27;82.53
24962;BME280;12992;50.884;13.668;2023-07-20T12:44:30;96924.56;;;20.43;85.67
24962;BME280;12992;50.884;13.668;2023-07-20T12:46:55;96976.53;;;19.55;91.65
24962;BME280;12992;50.884;13.668;2023-07-20T12:49:21;96990.88;;;18.77;97.16
24962;BME280;12992;50.884;13.668;2023-07-20T12:51:46;97007.44;;;18.32;99.85
24962;BME280;12992;50.884;13.668;2023-07-20T12:54:12;97011.38;;;17.81;100.00
24962;BME280;12992;50.884;13.668;2023-07-20T12:56:37;97020.63;;;17.36;100.00
24962;BME280;12992;50.884;13.668;2023-07-20T12:59:02;97017.66;;;17.18;100.00